Time;durP1;ratioP1;P1;durP2;ratioP2;P2;SDS_P1;SDS_P2;PMS_P1;PMS_P2;Temp;Humidity;BMP_temperature;BMP_pressure;BME280_temperature;BME280_humidity;BME280_pressure;Samples;Min_cycle;Max_cycle;Signal;HPM_P1;HPM_P2
2021/08/04 00:00:27;;;;;;;15.65;7.92;;;;;;;19.04;100.00;99071.28;1697817;84;20920;-67
2021/08/04 00:02:55;;;;;;;12.40;7.80;;;;;;;19.05;100.00;99068.14;1721560;83;20869;-67
2021/08/04 00:05:24;;;;;;;11.22;7.10;;;;;;;19.03;100.00;99065.53;1736632;82;21012;-67
2021/08/04 00:07:52;;;;;;;10.00;7.15;;;;;;;19.05;100.00;99069.48;1738824;82;20884;-67
2021/08/04 00:10:20;;;;;;;13.93;6.72;;;;;;;19.04;100.00;99069.95;1738278;81;21141;-66
2021/08/04 00:12:50;;;;;;;11.33;7.35;;;;;;;19.05;100.00;99074.36;1739024;82;20924;-66
2021/08/04 00:15:18;;;;;;;7.50;5.83;;;;;;;19.06;100.00;99075.23;1738834;82;20952;-65
2021/08/04 00:17:48;;;;;;;11.57;6.28;;;;;;;19.08;100.00;99074.23;1737400;82;21541;-65
2021/08/04 00:20:17;;;;;;;10.23;6.70;;;;;;;19.12;100.00;99073.16;1734846;82;21003;-66
2021/08/04 00:22:45;;;;;;;8.60;5.55;;;;;;;19.14;100.00;99081.99;1732496;81;21186;-67
2021/08/04 00:25:13;;;;;;;7.58;5.60;;;;;;;19.16;100.00;99077.91;1728378;82;21502;-67
2021/08/04 00:27:41;;;;;;;10.03;6.03;;;;;;;19.16;100.00;99077.91;1726060;81;20995;-67
2021/08/04 00:30:11;;;;;;;8.15;5.60;;;;;;;19.16;100.00;99079.25;1726553;81;21449;-67
2021/08/04 00:32:41;;;;;;;9.10;5.42;;;;;;;19.14;100.00;99075.77;1717172;82;21048;-67
2021/08/04 00:35:10;;;;;;;5.62;5.05;;;;;;;19.12;100.00;99070.95;1707838;81;21164;-67
2021/08/04 00:37:40;;;;;;;8.23;5.15;;;;;;;19.12;100.00;99072.30;1739018;81;21443;-67
2021/08/04 00:40:10;;;;;;;7.03;4.85;;;;;;;19.15;100.00;99070.83;1738099;81;21046;-67
2021/08/04 00:42:40;;;;;;;14.05;5.35;;;;;;;19.17;100.00;99070.30;1741079;81;21582;-68
2021/08/04 00:45:10;;;;;;;18.90;5.80;;;;;;;19.18;100.00;99066.69;1747335;81;20948;-67
2021/08/04 00:47:41;;;;;;;44.42;7.85;;;;;;;19.17;100.00;99071.17;1738679;81;21142;-67
2021/08/04 00:50:10;;;;;;;20.48;6.00;;;;;;;19.15;100.00;99067.69;1696028;83;21568;-67
2021/08/04 00:52:40;;;;;;;29.65;6.33;;;;;;;19.14;100.00;99066.42;1728607;81;20955;-67
2021/08/04 00:55:10;;;;;;;10.90;6.17;;;;;;;19.14;100.00;99069.09;1739977;81;21547;-67
2021/08/04 00:57:39;;;;;;;15.72;6.80;;;;;;;19.15;100.00;99066.35;1703584;82;21457;-67
2021/08/04 01:00:09;;;;;;;17.27;6.53;;;;;;;19.15;100.00;99068.16;1735701;82;21498;-67
2021/08/04 01:02:46;;;;;;;14.70;7.20;;;;;;;19.14;100.00;99070.42;1696228;82;21453;-67
2021/08/04 01:05:23;;;;;;;15.20;7.53;;;;;;;19.10;100.00;99079.52;1744747;80;21433;-65
2021/08/04 01:08:02;;;;;;;16.20;7.75;;;;;;;19.05;100.00;99082.84;1724289;81;21027;-66
2021/08/04 01:10:39;;;;;;;16.67;8.75;;;;;;;19.01;100.00;99080.77;1746118;82;21577;-66
2021/08/04 01:13:31;;;;;;;16.95;8.33;;;;;;;18.98;100.00;99083.56;1730758;81;21145;-64
2021/08/04 01:16:26;;;;;;;14.70;7.63;;;;;;;18.94;100.00;99079.75;1742055;81;21421;-65
2021/08/04 01:19:42;;;;;;;15.50;7.83;;;;;;;18.94;100.00;99079.75;1747604;80;21389;-65
2021/08/04 01:22:49;;;;;;;13.65;8.25;;;;;;;18.88;100.00;99076.36;1765741;80;21529;-66
2021/08/04 01:25:24;;;;;;;11.90;7.60;;;;;;;18.82;100.00;99074.41;1746995;80;21479;-65
2021/08/04 01:28:44;;;;;;;12.73;7.50;;;;;;;18.75;100.00;99075.12;1782352;80;21534;-65
2021/08/04 01:31:19;;;;;;;20.82;8.08;;;;;;;18.70;100.00;99070.89;1733549;82;21479;-65
2021/08/04 01:33:49;;;;;;;16.02;7.95;;;;;;;18.63;100.00;99072.08;1782410;79;21410;-69
2021/08/04 01:36:18;;;;;;;12.93;7.92;;;;;;;18.56;100.00;99068.74;1782452;80;21387;-67
2021/08/04 01:38:47;;;;;;;14.53;7.80;;;;;;;18.53;100.00;99072.41;1747020;80;20920;-67
2021/08/04 01:41:18;;;;;;;12.95;7.85;;;;;;;18.52;100.00;99068.00;1782806;79;21992;-67
2021/08/04 01:43:47;;;;;;;21.15;8.15;;;;;;;18.50;100.00;99072.99;1749330;80;21426;-67
2021/08/04 01:46:15;;;;;;;12.90;7.50;;;;;;;18.47;100.00;99066.44;1763759;79;20940;-67
2021/08/04 01:48:44;;;;;;;12.15;7.70;;;;;;;18.45;100.00;99074.98;1787116;78;20995;-67
2021/08/04 01:51:14;;;;;;;12.70;6.85;;;;;;;18.44;100.00;99079.88;1788160;78;21018;-65
2021/08/04 01:53:44;;;;;;;10.13;6.65;;;;;;;18.44;100.00;99078.08;1787120;78;21914;-66
2021/08/04 01:56:14;;;;;;;10.40;6.30;;;;;;;18.49;100.00;99083.27;1786992;78;20960;-67
2021/08/04 01:58:44;;;;;;;11.40;7.10;;;;;;;18.53;100.00;99096.91;1787873;80;20962;-67
2021/08/04 02:01:13;;;;;;;8.63;5.83;;;;;;;18.56;100.00;99102.14;1787851;80;20988;-66
2021/08/04 02:03:44;;;;;;;9.88;6.87;;;;;;;18.59;100.00;99106.48;1787959;80;20923;-65
2021/08/04 02:06:40;;;;;;;10.25;5.72;;;;;;;18.61;100.00;99110.84;1786988;78;21120;-65
2021/08/04 02:09:33;;;;;;;15.53;6.35;;;;;;;18.64;100.00;99105.88;1756148;80;21509;-66
2021/08/04 02:12:10;;;;;;;11.25;6.90;;;;;;;18.65;100.00;99111.63;1787415;78;21422;-65
2021/08/04 02:15:06;;;;;;;11.22;5.95;;;;;;;18.63;100.00;99116.16;1737989;80;21101;-65
2021/08/04 02:17:41;;;;;;;11.28;6.33;;;;;;;18.62;100.00;99116.63;1787712;80;20964;-65
2021/08/04 02:20:28;;;;;;;11.28;6.10;;;;;;;18.58;100.00;99117.64;1788024;78;21994;-65
2021/08/04 02:23:18;;;;;;;40.70;9.08;;;;;;;18.54;100.00;99120.89;1788010;78;20816;-65
2021/08/04 02:26:12;;;;;;;69.90;12.88;;;;;;;18.50;100.00;99124.62;1762677;80;21501;-65
2021/08/04 02:28:43;;;;;;;32.83;8.23;;;;;;;18.47;100.00;99119.39;1788073;78;20981;-64
2021/08/04 02:31:14;;;;;;;16.12;7.58;;;;;;;18.47;100.00;99127.88;1787917;79;20967;-65
2021/08/04 02:33:44;;;;;;;13.05;6.90;;;;;;;18.43;100.00;99125.75;1788212;78;21928;-66
2021/08/04 02:36:14;;;;;;;107.97;11.53;;;;;;;18.40;100.00;99127.67;1788076;80;21447;-65
2021/08/04 02:38:44;;;;;;;52.33;9.75;;;;;;;18.35;100.00;99117.63;1787886;78;20939;-66
2021/08/04 02:41:13;;;;;;;14.90;7.05;;;;;;;18.29;100.00;99116.52;1787983;78;21007;-65
2021/08/04 02:43:43;;;;;;;16.73;7.83;;;;;;;18.24;100.00;99115.36;1777903;79;21399;-65
2021/08/04 02:46:11;;;;;;;30.17;7.97;;;;;;;18.20;100.00;99109.73;1770575;80;21083;-65
2021/08/04 02:48:40;;;;;;;32.88;8.25;;;;;;;18.18;100.00;99110.26;1775853;79;20936;-65
2021/08/04 02:51:12;;;;;;;37.93;8.35;;;;;;;18.19;100.00;99103.98;1775359;79;20984;-63
2021/08/04 02:53:40;;;;;;;42.38;8.80;;;;;;;18.22;100.00;99107.88;1772643;79;21016;-63
2021/08/04 02:56:09;;;;;;;35.20;8.68;;;;;;;18.23;100.00;99093.13;1731655;81;20944;-64
2021/08/04 02:58:38;;;;;;;31.33;7.70;;;;;;;18.27;100.00;99087.67;1721241;82;21506;-63
2021/08/04 03:01:07;;;;;;;26.50;7.90;;;;;;;18.31;100.00;99090.17;1733055;81;21395;-63
2021/08/04 03:03:36;;;;;;;20.77;6.67;;;;;;;18.39;100.00;99090.74;1718621;83;21581;-66
2021/08/04 03:06:06;;;;;;;14.35;7.10;;;;;;;18.46;100.00;99088.73;1714598;81;21047;-62
2021/08/04 03:08:37;;;;;;;11.78;6.50;;;;;;;18.51;100.00;99092.09;1724148;81;21580;-63
2021/08/04 03:11:08;;;;;;;14.40;6.83;;;;;;;18.56;100.00;99091.45;1715953;83;21001;-64
2021/08/04 03:13:37;;;;;;;13.75;6.00;;;;;;;18.58;100.00;99086.92;1724498;81;21009;-65
2021/08/04 03:16:06;;;;;;;14.23;6.03;;;;;;;18.63;100.00;99090.31;1737145;80;21553;-65
2021/08/04 03:18:34;;;;;;;11.83;6.92;;;;;;;18.72;100.00;99099.76;1718551;83;21604;-65
2021/08/04 03:21:04;;;;;;;40.33;8.45;;;;;;;18.79;100.00;99102.59;1718401;81;21012;-64
2021/08/04 03:23:32;;;;;;;46.02;10.72;;;;;;;18.85;100.00;99104.55;1722286;83;21155;-65
2021/08/04 03:26:00;;;;;;;19.42;8.53;;;;;;;18.90;100.00;99107.03;1734698;80;21015;-65
2021/08/04 03:28:28;;;;;;;15.15;8.13;;;;;;;18.92;100.00;99111.88;1718958;81;21521;-64
2021/08/04 03:30:57;;;;;;;18.37;9.55;;;;;;;18.94;100.00;99109.15;1738733;81;20944;-64
2021/08/04 03:33:25;;;;;;;19.37;9.60;;;;;;;18.94;100.00;99107.81;1718748;81;20940;-64
2021/08/04 03:35:53;;;;;;;13.90;8.53;;;;;;;18.97;100.00;99107.22;1718317;83;21155;-63
2021/08/04 03:38:21;;;;;;;13.75;8.05;;;;;;;19.00;100.00;99109.77;1714292;83;21003;-64
2021/08/04 03:40:49;;;;;;;12.63;8.85;;;;;;;19.02;100.00;99107.03;1718341;83;21055;-59
2021/08/04 03:43:17;;;;;;;12.53;8.00;;;;;;;19.01;100.00;99101.28;1720823;81;20943;-64
2021/08/04 03:45:45;;;;;;;17.12;9.18;;;;;;;19.00;100.00;99096.87;1724198;81;21446;-65
2021/08/04 03:48:14;;;;;;;43.48;11.05;;;;;;;18.96;100.00;99097.46;1735526;80;21230;-63
2021/08/04 03:50:43;;;;;;;33.60;9.40;;;;;;;18.97;100.00;99092.98;1718283;83;21711;-64
2021/08/04 03:53:12;;;;;;;19.77;9.15;;;;;;;18.99;100.00;99095.13;1714597;83;21585;-64
2021/08/04 03:55:39;;;;;;;19.12;9.20;;;;;;;19.01;100.00;99098.14;1729362;81;20908;-63
2021/08/04 03:58:07;;;;;;;11.30;8.10;;;;;;;19.03;100.00;99094.94;1729366;81;21081;-63
2021/08/04 04:00:36;;;;;;;19.87;8.98;;;;;;;19.06;100.00;99100.16;1740163;80;21120;-63
2021/08/04 04:03:05;;;;;;;13.90;8.28;;;;;;;19.12;100.00;99106.59;1689943;82;20904;-63
2021/08/04 04:05:34;;;;;;;13.45;7.95;;;;;;;19.21;100.00;99101.33;1717061;81;21483;-64
2021/08/04 04:08:04;;;;;;;14.55;8.45;;;;;;;19.31;100.00;99107.16;1713533;82;20916;-63
2021/08/04 04:10:32;;;;;;;12.55;8.90;;;;;;;19.39;100.00;99107.27;1729234;83;21076;-63
2021/08/04 04:13:01;;;;;;;13.05;9.08;;;;;;;19.49;100.00;99110.41;1734560;81;21347;-63
2021/08/04 04:15:29;;;;;;;29.70;11.00;;;;;;;19.57;100.00;99111.45;1719015;81;21875;-64
2021/08/04 04:17:58;;;;;;;39.73;10.08;;;;;;;19.65;100.00;99116.00;1724426;83;20967;-64
2021/08/04 04:20:27;;;;;;;25.08;9.50;;;;;;;19.73;100.00;99116.06;1717539;83;21578;-63
2021/08/04 04:22:55;;;;;;;15.75;8.23;;;;;;;19.84;100.00;99120.95;1715595;82;20908;-63
2021/08/04 04:25:25;;;;;;;15.10;8.65;;;;;;;19.94;100.00;99114.28;1722079;83;21363;-63
2021/08/04 04:27:53;;;;;;;20.50;8.80;;;;;;;20.05;100.00;99120.02;1727645;81;20915;-64
2021/08/04 04:30:23;;;;;;;20.77;8.65;;;;;;;20.11;100.00;99123.76;1732717;81;21008;-64
2021/08/04 04:32:54;;;;;;;34.25;9.25;;;;;;;20.16;100.00;99122.21;1716668;83;20928;-63
2021/08/04 04:35:23;;;;;;;15.78;8.58;;;;;;;20.21;100.00;99122.00;1729204;82;20963;-66
2021/08/04 04:37:54;;;;;;;11.87;9.07;;;;;;;20.23;100.00;99120.12;1720623;82;20923;-64
2021/08/04 04:40:21;;;;;;;24.23;9.18;;;;;;;20.24;100.00;99128.09;1720584;82;20963;-65
2021/08/04 04:42:50;;;;;;;23.12;9.00;;;;;;;20.26;100.00;99135.58;1724270;82;20904;-63
2021/08/04 04:45:17;;;;;;;14.50;8.80;;;;;;;20.31;100.00;99143.41;1743764;81;20902;-64
2021/08/04 04:47:46;;;;;;;14.83;8.65;;;;;;;20.36;100.00;99128.89;1748036;82;21518;-63
2021/08/04 04:50:14;;;;;;;13.20;8.83;;;;;;;20.42;100.00;99131.32;1750078;80;21158;-63
2021/08/04 04:52:43;;;;;;;16.77;8.55;;;;;;;20.47;100.00;99135.13;1750205;81;21052;-62
2021/08/04 04:55:13;;;;;;;12.30;8.03;;;;;;;20.48;100.00;99138.20;1750519;80;20962;-63
2021/08/04 04:57:41;;;;;;;10.28;7.80;;;;;;;20.52;100.00;99136.25;1750276;81;20947;-63
2021/08/04 05:00:10;;;;;;;13.80;8.00;;;;;;;20.55;100.00;99133.42;1750602;80;20903;-63
2021/08/04 05:02:39;;;;;;;11.50;7.62;;;;;;;20.58;100.00;99130.60;1750250;81;21277;-63
2021/08/04 05:05:07;;;;;;;9.63;7.50;;;;;;;20.60;100.00;99134.08;1750707;81;21375;-63
2021/08/04 05:07:35;;;;;;;8.83;7.03;;;;;;;20.58;100.00;99138.17;1750423;80;20875;-63
2021/08/04 05:10:03;;;;;;;9.93;6.83;;;;;;;20.58;100.00;99139.51;1750649;80;21456;-64
2021/08/04 05:12:31;;;;;;;8.63;7.50;;;;;;;20.57;100.00;99141.80;1750494;81;20935;-64
2021/08/04 05:14:59;;;;;;;12.00;9.08;;;;;;;20.59;100.00;99142.59;1750776;81;21051;-64
2021/08/04 05:17:27;;;;;;;15.40;9.13;;;;;;;20.68;100.00;99139.95;1750388;81;20923;-62
2021/08/04 05:19:55;;;;;;;11.00;8.38;;;;;;;20.77;100.00;99139.98;1750683;81;20894;-63
2021/08/04 05:22:22;;;;;;;12.60;8.63;;;;;;;20.80;100.00;99138.02;1750404;81;20934;-63
2021/08/04 05:24:50;;;;;;;10.23;7.45;;;;;;;20.80;100.00;99133.13;1750698;81;20872;-64
2021/08/04 05:27:17;;;;;;;10.65;6.33;;;;;;;20.82;100.00;99125.44;1750438;81;21076;-64
2021/08/04 05:29:45;;;;;;;9.60;6.03;;;;;;;20.89;100.00;99126.02;1750612;80;21430;-64
2021/08/04 05:32:12;;;;;;;9.00;6.50;;;;;;;20.91;100.00;99121.45;1750415;80;20855;-64
2021/08/04 05:34:39;;;;;;;7.20;5.70;;;;;;;20.91;100.00;99126.34;1750648;81;20930;-63
2021/08/04 05:37:08;;;;;;;8.20;5.53;;;;;;;20.89;100.00;99130.03;1750424;81;20860;-63
2021/08/04 05:39:35;;;;;;;7.55;5.55;;;;;;;20.94;100.00;99137.39;1750718;81;21737;-64
2021/08/04 05:42:03;;;;;;;14.53;7.08;;;;;;;21.00;100.00;99139.77;1750388;80;20832;-64
2021/08/04 05:44:31;;;;;;;12.20;6.70;;;;;;;21.05;100.00;99145.77;1750484;80;20860;-63
2021/08/04 05:46:59;;;;;;;10.40;7.10;;;;;;;21.13;100.00;99148.95;1750411;81;20879;-64
2021/08/04 05:49:27;;;;;;;9.35;6.53;;;;;;;21.23;100.00;99138.67;1750447;80;20871;-63
2021/08/04 05:51:55;;;;;;;15.43;6.72;;;;;;;21.38;100.00;99135.25;1750680;81;21872;-64
2021/08/04 05:54:23;;;;;;;15.95;6.62;;;;;;;21.54;100.00;99126.81;1750308;81;20876;-63
2021/08/04 05:56:50;;;;;;;12.78;6.50;;;;;;;21.69;100.00;99132.73;1750702;80;20895;-64
2021/08/04 05:59:17;;;;;;;13.38;6.45;;;;;;;21.83;100.00;99133.39;1750366;80;21395;-64
2021/08/04 06:01:45;;;;;;;12.88;6.83;;;;;;;21.92;100.00;99134.73;1750692;81;20891;-63
2021/08/04 06:04:12;;;;;;;16.37;7.33;;;;;;;22.02;100.00;99137.32;1750345;81;21911;-63
2021/08/04 06:06:40;;;;;;;16.97;6.95;;;;;;;22.08;100.00;99139.72;1750640;81;20895;-63
2021/08/04 06:09:08;;;;;;;15.32;7.40;;;;;;;22.11;100.00;99141.37;1750398;81;20926;-63
2021/08/04 06:11:37;;;;;;;13.48;7.67;;;;;;;22.14;100.00;99143.89;1750596;80;21304;-63
2021/08/04 06:14:04;;;;;;;17.35;8.33;;;;;;;22.18;100.00;99148.15;1750377;81;20948;-63
2021/08/04 06:16:33;;;;;;;31.10;8.80;;;;;;;22.18;100.00;99146.33;1750640;80;20879;-63
2021/08/04 06:19:01;;;;;;;14.98;7.42;;;;;;;22.21;100.00;99143.95;1750391;81;20919;-64
2021/08/04 06:21:29;;;;;;;10.30;6.70;;;;;;;22.24;100.00;99146.03;1750510;80;20899;-63
2021/08/04 06:23:56;;;;;;;21.55;6.78;;;;;;;22.30;100.00;99143.02;1750343;80;20883;-63
2021/08/04 06:26:24;;;;;;;11.20;4.92;;;;;;;22.37;100.00;99152.95;1750359;80;20977;-63
2021/08/04 06:28:52;;;;;;;55.52;7.12;;;;;;;22.41;100.00;99149.16;1750391;80;21115;-63
2021/08/04 06:31:19;;;;;;;12.60;4.58;;;;;;;22.44;100.00;99150.33;1750300;80;21421;-63
2021/08/04 06:33:47;;;;;;;7.75;3.95;;;;;;;22.48;100.00;99147.87;1750630;81;20871;-63
2021/08/04 06:36:14;;;;;;;6.30;3.80;;;;;;;22.52;100.00;99154.81;1742685;80;20942;-63
2021/08/04 06:38:42;;;;;;;7.33;4.15;;;;;;;22.56;100.00;99160.89;1734021;81;20918;-63
2021/08/04 06:41:10;;;;;;;4.25;3.58;;;;;;;22.60;100.00;99159.29;1720475;82;21097;-64
2021/08/04 06:43:37;;;;;;;5.87;3.52;;;;;;;22.68;100.00;99160.69;1720725;82;21429;-64
2021/08/04 06:46:11;;;;;;;13.48;4.53;;;;;;;22.75;100.00;99162.98;1720468;81;20934;-64
2021/08/04 06:48:40;;;;;;;7.92;3.70;;;;;;;22.78;100.00;99174.05;1720508;81;21456;-63
2021/08/04 06:51:11;;;;;;;14.10;4.25;;;;;;;22.81;100.00;99173.91;1720774;81;20922;-63
2021/08/04 06:53:39;;;;;;;6.10;3.25;;;;;;;22.83;100.00;99188.14;1720526;81;20953;-63
2021/08/04 06:56:07;;;;;;;8.13;4.00;;;;;;;22.84;100.00;99187.19;1720404;82;20875;-63
2021/08/04 06:58:35;;;;;;;47.73;7.03;;;;;;;22.88;100.00;99193.66;1720527;81;21474;-64
2021/08/04 07:01:02;;;;;;;8.23;4.40;;;;;;;22.92;100.00;99193.00;1720589;82;20903;-63
2021/08/04 07:03:29;;;;;;;40.67;6.58;;;;;;;22.96;100.00;99197.26;1720567;82;20895;-62
2021/08/04 07:05:57;;;;;;;9.18;4.78;;;;;;;22.99;100.00;99187.67;1720762;82;21038;-63
2021/08/04 07:08:24;;;;;;;21.30;5.40;;;;;;;23.06;100.00;99191.75;1720449;82;20895;-63
2021/08/04 07:10:53;;;;;;;22.30;6.20;;;;;;;23.10;100.00;99188.41;1720803;81;21311;-63
2021/08/04 07:13:22;;;;;;;10.03;5.60;;;;;;;23.15;100.00;99188.54;1720429;82;20898;-63
2021/08/04 07:15:50;;;;;;;20.23;6.40;;;;;;;23.20;100.00;99185.62;1720747;81;20884;-65
2021/08/04 07:18:17;;;;;;;15.18;5.60;;;;;;;23.23;100.00;99190.83;1720464;81;21168;-63
2021/08/04 07:20:44;;;;;;;9.68;5.65;;;;;;;23.26;100.00;99184.40;1720663;81;20895;-64
2021/08/04 07:23:12;;;;;;;13.68;6.70;;;;;;;23.29;100.00;99185.57;1720438;82;20983;-64
2021/08/04 07:25:40;;;;;;;8.63;6.22;;;;;;;23.31;100.00;99190.38;1720647;81;20890;-63
2021/08/04 07:28:25;;;;;;;10.78;6.25;;;;;;;23.32;100.00;99188.08;1720602;82;20871;-64
2021/08/04 07:30:54;;;;;;;17.65;7.12;;;;;;;23.33;100.00;99189.82;1720357;82;21121;-63
2021/08/04 07:33:22;;;;;;;12.63;6.17;;;;;;;23.33;100.00;99192.03;1720573;81;20891;-63
2021/08/04 07:35:50;;;;;;;10.43;6.15;;;;;;;23.33;100.00;99193.37;1720736;82;21453;-64
2021/08/04 07:38:17;;;;;;;9.38;6.30;;;;;;;23.33;100.00;99183.95;1720518;81;21414;-67
2021/08/04 07:40:44;;;;;;;10.63;6.40;;;;;;;23.33;100.00;99191.17;1720703;81;20903;-64
2021/08/04 07:43:12;;;;;;;9.88;6.00;;;;;;;23.31;100.00;99193.95;1720351;82;21111;-68
2021/08/04 07:45:39;;;;;;;16.05;7.70;;;;;;;23.31;100.00;99189.91;1714714;82;20852;-69
2021/08/04 07:48:06;;;;;;;8.93;7.08;;;;;;;23.30;100.00;99192.21;1710284;82;21462;-68
2021/08/04 07:50:34;;;;;;;10.70;6.92;;;;;;;23.27;100.00;99192.86;1710203;82;21503;-68
2021/08/04 07:53:04;;;;;;;10.72;7.00;;;;;;;23.28;100.00;99194.59;1710249;83;20927;-67
2021/08/04 07:55:31;;;;;;;10.88;6.78;;;;;;;23.26;100.00;99191.13;1713540;81;21494;-68
2021/08/04 07:57:58;;;;;;;12.70;7.00;;;;;;;23.27;100.00;99185.66;1723221;82;21396;-69
2021/08/04 08:00:27;;;;;;;8.25;6.42;;;;;;;23.31;100.00;99179.14;1710304;83;21435;-69
2021/08/04 08:02:54;;;;;;;9.53;6.17;;;;;;;23.37;100.00;99174.75;1710237;83;20923;-68
2021/08/04 08:05:21;;;;;;;11.33;6.25;;;;;;;23.42;100.00;99166.41;1710583;82;21402;-68
2021/08/04 08:07:50;;;;;;;7.58;6.10;;;;;;;23.49;100.00;99171.82;1710281;83;21919;-70
2021/08/04 08:10:19;;;;;;;12.63;7.37;;;;;;;23.57;100.00;99167.36;1710434;83;20887;-69
2021/08/04 08:12:48;;;;;;;8.73;6.95;;;;;;;23.66;100.00;99166.38;1710224;83;21366;-69
2021/08/04 08:15:16;;;;;;;10.03;7.25;;;;;;;23.75;100.00;99161.78;1718477;82;20901;-69
2021/08/04 08:17:43;;;;;;;12.98;8.33;;;;;;;23.85;100.00;99161.62;1737135;82;20896;-69
2021/08/04 08:20:13;;;;;;;14.78;7.15;;;;;;;24.01;100.00;99159.34;1734551;82;21786;-64
2021/08/04 08:22:41;;;;;;;10.38;7.47;;;;;;;24.18;100.00;99161.91;1734587;82;20910;-65
2021/08/04 08:25:12;;;;;;;11.97;6.78;;;;;;;24.40;100.00;99158.77;1736928;82;20946;-64
2021/08/04 08:27:39;;;;;;;9.78;6.45;;;;;;;24.58;100.00;99149.52;1730902;81;20914;-66
2021/08/04 08:30:08;;;;;;;11.28;6.40;;;;;;;24.77;100.00;99147.90;1735825;82;21003;-66
2021/08/04 08:32:36;;;;;;;7.67;5.53;;;;;;;24.95;100.00;99141.31;1737605;81;21780;-66
2021/08/04 08:35:04;;;;;;;7.33;5.60;;;;;;;25.13;100.00;99142.48;1736427;82;20928;-68
2021/08/04 08:37:32;;;;;;;16.20;6.40;;;;;;;25.32;100.00;99141.65;1736415;82;20946;-66
2021/08/04 08:40:00;;;;;;;6.85;4.00;;;;;;;25.45;100.00;99131.76;1731253;81;20949;-68
2021/08/04 08:42:28;;;;;;;6.03;4.53;;;;;;;25.46;100.00;99132.14;1734563;81;21442;-69
2021/08/04 08:44:58;;;;;;;8.85;5.20;;;;;;;25.48;100.00;99130.69;1736535;80;21126;-68
2021/08/04 08:47:25;;;;;;;7.85;5.92;;;;;;;25.46;100.00;99131.27;1755756;80;21473;-70
2021/08/04 08:49:54;;;;;;;10.03;5.83;;;;;;;25.45;100.00;99132.24;1755749;80;21457;-70
2021/08/04 08:52:22;;;;;;;8.63;5.62;;;;;;;25.42;100.00;99134.18;1756025;80;20960;-68
2021/08/04 08:54:50;;;;;;;22.98;6.60;;;;;;;25.39;100.00;99132.17;1753887;80;20863;-69
2021/08/04 08:57:17;;;;;;;7.10;5.65;;;;;;;25.31;100.00;99132.69;1751488;80;21395;-70
2021/08/04 08:59:45;;;;;;;9.28;5.55;;;;;;;25.21;100.00;99125.30;1748851;81;20951;-68
2021/08/04 09:02:12;;;;;;;8.13;5.95;;;;;;;25.10;100.00;99117.43;1747072;81;20915;-66
2021/08/04 09:04:39;;;;;;;11.33;6.30;;;;;;;25.00;100.00;99117.63;1752311;82;20999;-68
2021/08/04 09:07:07;;;;;;;9.23;5.70;;;;;;;24.91;100.00;99116.84;1753553;81;21411;-67
2021/08/04 09:09:35;;;;;;;7.90;5.85;;;;;;;24.78;100.00;99119.95;1753177;81;21108;-67
2021/08/04 09:12:12;;;;;;;11.83;5.70;;;;;;;24.68;100.00;99116.98;1753038;82;20829;-68
2021/08/04 09:14:40;;;;;;;12.63;5.90;;;;;;;24.64;100.00;99122.20;1753468;81;20947;-67
2021/08/04 09:17:13;;;;;;;8.85;5.85;;;;;;;24.65;100.00;99116.32;1753080;81;21012;-67
2021/08/04 09:19:43;;;;;;;11.00;5.78;;;;;;;24.67;100.00;99116.60;1753253;81;20955;-67
2021/08/04 09:22:14;;;;;;;7.67;5.60;;;;;;;24.78;100.00;99113.21;1744086;81;21057;-67
2021/08/04 09:25:08;;;;;;;8.03;5.22;;;;;;;24.92;100.00;99111.83;1748566;81;20949;-68
2021/08/04 09:27:53;;;;;;;6.35;4.92;;;;;;;25.11;100.00;99111.55;1748287;81;21479;-68
2021/08/04 09:30:26;;;;;;;7.62;4.75;;;;;;;25.33;100.00;99106.45;1745842;81;20998;-68
2021/08/04 09:33:12;;;;;;;9.58;4.83;;;;;;;25.53;100.00;99101.53;1744600;81;20884;-67
2021/08/04 09:35:49;;;;;;;11.15;4.40;;;;;;;25.70;100.00;99098.61;1745639;81;21099;-68
2021/08/04 09:38:17;;;;;;;7.58;4.67;;;;;;;25.91;100.00;99099.81;1744378;81;20939;-68
2021/08/04 09:40:45;;;;;;;6.85;4.67;;;;;;;26.08;100.00;99089.20;1748601;82;20990;-68
2021/08/04 09:43:25;;;;;;;5.78;4.17;;;;;;;26.27;100.00;99089.62;1748129;81;20998;-68
2021/08/04 09:45:54;;;;;;;6.65;4.33;;;;;;;26.38;100.00;99090.73;1741492;82;20905;-68
2021/08/04 09:48:26;;;;;;;6.25;4.80;;;;;;;26.24;100.00;99087.14;1729068;83;21071;-69
2021/08/04 09:51:02;;;;;;;6.55;5.05;;;;;;;26.12;100.00;99089.85;1725510;82;20905;-69
2021/08/04 09:53:35;;;;;;;22.93;5.78;;;;;;;26.00;100.00;99087.49;1749810;80;20895;-69
2021/08/04 09:56:17;;;;;;;11.57;5.12;;;;;;;25.92;100.00;99092.09;1784583;78;20935;-67
2021/08/04 09:58:52;;;;;;;13.58;4.70;;;;;;;25.86;100.00;99092.52;1782426;78;20975;-67
2021/08/04 10:01:25;;;;;;;10.58;3.92;;;;;;;25.76;100.00;99100.02;1781352;79;21098;-68
2021/08/04 10:04:07;;;;;;;9.20;3.67;;;;;;;25.63;100.00;99102.18;1778361;80;20903;-68
2021/08/04 10:06:40;;;;;;;9.65;3.98;;;;;;;25.51;100.00;99102.13;1754205;80;20936;-68
2021/08/04 10:09:15;;;;;;;8.05;3.90;;;;;;;25.35;100.00;99103.64;1754467;81;20888;-68
2021/08/04 10:11:47;;;;;;;6.50;4.00;;;;;;;25.25;100.00;99103.39;1763742;78;20884;-67
2021/08/04 10:14:18;;;;;;;5.92;3.55;;;;;;;25.17;100.00;99104.39;1748873;80;20961;-68
2021/08/04 10:16:46;;;;;;;6.53;3.65;;;;;;;25.17;100.00;99095.43;1757781;79;20922;-68
2021/08/04 10:19:13;;;;;;;5.17;3.90;;;;;;;25.20;100.00;99097.92;1783875;78;20896;-69
2021/08/04 10:21:47;;;;;;;7.12;3.90;;;;;;;25.26;100.00;99101.56;1748083;80;20941;-69
2021/08/04 10:24:12;;;;;;;5.45;3.87;;;;;;;25.29;100.00;99102.70;1693510;83;20897;-67
2021/08/04 10:26:40;;;;;;;5.55;3.77;;;;;;;25.28;100.00;99105.02;1718557;81;21803;-68
2021/08/04 10:29:08;;;;;;;10.05;4.10;;;;;;;25.28;100.00;99100.49;1749770;82;21388;-66
2021/08/04 10:31:36;;;;;;;6.25;3.70;;;;;;;25.27;100.00;99096.06;1747079;80;20897;-67
2021/08/04 10:34:04;;;;;;;6.87;3.95;;;;;;;25.32;100.00;99097.97;1747808;80;21429;-67
2021/08/04 10:36:41;;;;;;;7.17;4.33;;;;;;;25.35;100.00;99083.39;1747458;80;20907;-66
2021/08/04 10:39:14;;;;;;;5.12;4.33;;;;;;;25.42;100.00;99092.33;1781299;78;21133;-66
2021/08/04 10:42:05;;;;;;;5.45;4.10;;;;;;;25.50;100.00;99087.75;1784903;78;20899;-66
2021/08/04 10:44:34;;;;;;;5.30;4.25;;;;;;;25.59;100.00;99080.89;1782021;78;20865;-66
2021/08/04 10:47:04;;;;;;;11.30;4.67;;;;;;;25.69;100.00;99083.37;1773658;80;20868;-67
2021/08/04 10:49:37;;;;;;;26.73;5.15;;;;;;;25.82;100.00;99083.38;1769377;79;20861;-65
2021/08/04 10:52:10;;;;;;;6.12;4.25;;;;;;;25.95;100.00;99081.06;1766387;79;21943;-66
2021/08/04 10:55:03;;;;;;;5.42;4.20;;;;;;;26.10;100.00;99080.98;1770318;79;20861;-66
2021/08/04 10:57:34;;;;;;;8.60;4.30;;;;;;;26.24;100.00;99074.11;1767189;79;20892;-66
2021/08/04 11:00:21;;;;;;;7.60;4.10;;;;;;;26.41;100.00;99070.22;1770393;79;20935;-65
2021/08/04 11:02:51;;;;;;;14.85;5.17;;;;;;;26.50;100.00;99076.35;1774439;79;21309;-68
2021/08/04 11:05:18;;;;;;;9.73;4.25;;;;;;;26.38;99.23;99067.25;1774379;79;21093;-68
2021/08/04 11:08:17;;;;;;;6.62;4.12;;;;;;;26.30;100.00;99068.26;1774296;79;20868;-68
2021/08/04 11:10:46;;;;;;;38.30;6.62;;;;;;;26.28;100.00;99070.20;1774650;79;20920;-68
2021/08/04 11:13:19;;;;;;;10.00;4.45;;;;;;;26.38;100.00;99059.14;1774341;79;20935;-68
2021/08/04 11:15:46;;;;;;;6.37;3.92;;;;;;;26.47;100.00;99061.17;1753418;79;20885;-68
2021/08/04 11:18:14;;;;;;;5.60;4.05;;;;;;;26.58;100.00;99050.95;1779000;79;21162;-68
2021/08/04 11:21:08;;;;;;;8.50;3.92;;;;;;;26.70;100.00;99060.88;1773003;80;21441;-68
2021/08/04 11:23:46;;;;;;;68.30;7.78;;;;;;;26.81;100.00;99056.02;1764149;80;20929;-68
2021/08/04 11:26:37;;;;;;;5.87;4.00;;;;;;;26.87;100.00;99058.27;1770199;80;20930;-68
2021/08/04 11:29:06;;;;;;;6.72;4.08;;;;;;;26.80;100.00;99070.05;1770314;79;21422;-67
2021/08/04 11:31:33;;;;;;;8.93;4.12;;;;;;;26.65;100.00;99059.00;1774716;79;21038;-67
2021/08/04 11:34:29;;;;;;;6.35;3.65;;;;;;;26.56;100.00;99061.02;1771156;79;20905;-68
2021/08/04 11:37:00;;;;;;;8.60;3.58;;;;;;;26.45;100.00;99059.06;1768778;80;20888;-69